createdAt,value
2022-10-01T00:01:17.448Z,15.10
2022-10-01T00:03:45.611Z,10.00
2022-10-01T00:06:18.398Z,13.80
2022-10-01T00:08:49.149Z,11.85
2022-10-01T00:11:19.918Z,13.10
2022-10-01T00:13:47.455Z,9.88
2022-10-01T00:16:18.361Z,14.23
2022-10-01T00:18:48.140Z,14.60
2022-10-01T00:21:23.676Z,10.88
2022-10-01T00:24:02.231Z,10.77
2022-10-01T00:26:32.022Z,15.27
2022-10-01T00:29:05.516Z,14.90
2022-10-01T00:31:33.500Z,16.25
2022-10-01T00:34:03.407Z,15.43
2022-10-01T00:36:31.795Z,14.35
2022-10-01T00:39:02.200Z,15.77
2022-10-01T00:41:32.279Z,14.75
2022-10-01T00:44:20.705Z,16.25
2022-10-01T00:46:47.673Z,14.93
2022-10-01T00:49:24.413Z,15.82
2022-10-01T00:51:55.446Z,16.02
2022-10-01T00:54:43.375Z,16.10
2022-10-01T00:57:12.553Z,17.17
2022-10-01T00:59:39.554Z,17.30
2022-10-01T01:02:06.623Z,16.75
2022-10-01T01:04:33.614Z,15.63
2022-10-01T01:07:04.030Z,13.75
2022-10-01T01:09:35.309Z,15.60
2022-10-01T01:12:20.188Z,14.02
2022-10-01T01:15:10.565Z,12.90
2022-10-01T01:17:55.674Z,13.68
2022-10-01T01:20:22.475Z,11.82
2022-10-01T01:23:03.498Z,10.43
2022-10-01T01:26:03.588Z,11.18
2022-10-01T01:28:39.575Z,8.68
2022-10-01T01:31:15.596Z,8.90
2022-10-01T01:33:46.238Z,12.05
2022-10-01T01:36:18.941Z,10.23
2022-10-01T01:38:51.793Z,8.73
2022-10-01T01:41:21.031Z,8.55
2022-10-01T01:43:51.987Z,7.25
2022-10-01T01:46:20.490Z,6.47
2022-10-01T01:48:53.395Z,5.15
2022-10-01T01:51:33.014Z,5.47
2022-10-01T01:54:00.511Z,8.95
2022-10-01T01:56:27.993Z,4.43
2022-10-01T01:58:55.067Z,4.63
2022-10-01T02:01:42.452Z,8.57
2022-10-01T02:04:35.695Z,12.95
2022-10-01T02:07:05.401Z,13.77
2022-10-01T02:09:47.216Z,13.82
2022-10-01T02:12:38.447Z,14.98
2022-10-01T02:15:13.874Z,14.25
2022-10-01T02:17:50.731Z,11.57
2022-10-01T02:20:28.306Z,10.05
2022-10-01T02:23:01.007Z,9.10
2022-10-01T02:25:34.751Z,8.95
2022-10-01T02:28:07.818Z,8.38
2022-10-01T02:30:36.234Z,6.93
2022-10-01T02:33:05.731Z,6.78
2022-10-01T02:35:35.956Z,6.03
2022-10-01T02:38:06.497Z,5.55
2022-10-01T02:40:37.238Z,6.65
2022-10-01T02:43:09.130Z,8.45
2022-10-01T02:45:41.184Z,10.27
2022-10-01T02:48:11.471Z,13.52
2022-10-01T02:50:52.142Z,15.15
2022-10-01T02:53:23.606Z,13.98
2022-10-01T02:55:52.714Z,14.70
2022-10-01T02:58:20.469Z,15.10
2022-10-01T03:00:47.387Z,17.58
2022-10-01T03:03:14.287Z,20.55
2022-10-01T03:05:41.215Z,19.15
2022-10-01T03:08:08.233Z,19.42
2022-10-01T03:10:35.137Z,18.88
2022-10-01T03:13:02.245Z,18.40
2022-10-01T03:15:29.769Z,18.92
2022-10-01T03:17:56.690Z,18.77
2022-10-01T03:20:23.879Z,14.23
2022-10-01T03:22:50.821Z,15.80
2022-10-01T03:25:18.080Z,14.68
2022-10-01T03:27:46.264Z,14.25
2022-10-01T03:30:13.297Z,14.23
2022-10-01T03:32:40.162Z,14.65
2022-10-01T03:35:07.698Z,13.10
2022-10-01T03:37:34.632Z,12.20
2022-10-01T03:40:01.841Z,14.48
2022-10-01T03:42:28.696Z,11.68
2022-10-01T03:44:56.088Z,13.00
2022-10-01T03:47:24.463Z,12.25
2022-10-01T03:49:51.403Z,11.40
2022-10-01T03:52:19.225Z,11.43
2022-10-01T03:54:46.117Z,11.32
2022-10-01T03:57:12.994Z,11.82
2022-10-01T03:59:39.928Z,12.20
2022-10-01T04:02:08.399Z,12.52
2022-10-01T04:04:35.377Z,12.05
2022-10-01T04:07:02.248Z,11.38
2022-10-01T04:09:29.100Z,12.60
2022-10-01T04:11:56.111Z,11.52
2022-10-01T04:14:23.092Z,12.43
2022-10-01T04:16:52.600Z,10.68
2022-10-01T04:19:20.463Z,11.93
2022-10-01T04:21:47.838Z,12.93
2022-10-01T04:24:14.722Z,11.65
2022-10-01T04:26:41.565Z,11.38
2022-10-01T04:29:08.735Z,9.55
2022-10-01T04:31:36.191Z,9.45
2022-10-01T04:34:04.020Z,8.85
2022-10-01T04:36:31.201Z,8.32
2022-10-01T04:39:02.194Z,8.52
2022-10-01T04:41:31.899Z,8.85
2022-10-01T04:44:00.044Z,8.80
2022-10-01T04:46:30.118Z,7.70
2022-10-01T04:48:57.392Z,8.75
2022-10-01T04:51:24.703Z,8.07
2022-10-01T04:53:51.541Z,7.82
2022-10-01T04:56:18.391Z,7.53
2022-10-01T04:58:45.233Z,8.50
2022-10-01T05:01:12.627Z,11.68
2022-10-01T05:03:39.958Z,9.40
2022-10-01T05:06:06.892Z,8.52
2022-10-01T05:08:33.805Z,7.53
2022-10-01T05:11:00.729Z,9.15
2022-10-01T05:13:31.964Z,6.40
2022-10-01T05:15:59.430Z,6.43
2022-10-01T05:18:26.623Z,6.47
2022-10-01T05:20:53.499Z,6.43
2022-10-01T05:23:20.408Z,7.88
2022-10-01T05:25:47.457Z,7.90
2022-10-01T05:28:18.403Z,7.40
2022-10-01T05:30:49.271Z,6.25
2022-10-01T05:33:16.210Z,6.28
2022-10-01T05:35:43.119Z,6.13
2022-10-01T05:38:10.157Z,5.55
2022-10-01T05:40:37.226Z,5.07
2022-10-01T05:43:04.564Z,4.38
2022-10-01T05:45:32.276Z,4.07
2022-10-01T05:48:01.255Z,3.63
2022-10-01T05:50:31.689Z,3.90
2022-10-01T05:52:59.522Z,3.05
2022-10-01T05:55:27.057Z,3.20
2022-10-01T05:58:04.896Z,3.92
2022-10-01T06:00:33.754Z,3.08
2022-10-01T06:03:02.469Z,3.15
2022-10-01T06:05:31.496Z,2.83
2022-10-01T06:07:58.444Z,2.88
2022-10-01T06:10:25.744Z,2.67
2022-10-01T06:12:53.284Z,2.67
2022-10-01T06:15:20.202Z,2.85
2022-10-01T06:17:47.227Z,3.60
2022-10-01T06:20:19.237Z,2.67
2022-10-01T06:22:54.319Z,2.75
2022-10-01T06:25:21.692Z,3.10
2022-10-01T06:27:55.706Z,3.67
2022-10-01T06:30:22.823Z,3.60
2022-10-01T06:32:49.682Z,3.42
2022-10-01T06:35:16.618Z,3.38
2022-10-01T06:37:43.484Z,3.75
2022-10-01T06:40:10.572Z,3.53
2022-10-01T06:42:37.419Z,3.45
2022-10-01T06:45:04.840Z,3.83
2022-10-01T06:47:31.771Z,3.30
2022-10-01T06:49:59.470Z,3.67
2022-10-01T06:52:44.715Z,3.10
2022-10-01T06:55:16.349Z,3.72
2022-10-01T06:57:44.041Z,2.60
2022-10-01T07:00:11.966Z,2.90
2022-10-01T07:02:39.781Z,2.60
2022-10-01T07:05:08.638Z,3.10
2022-10-01T07:07:37.550Z,3.05
2022-10-01T07:10:09.293Z,3.10
2022-10-01T07:12:37.806Z,2.50
2022-10-01T07:15:06.502Z,3.45
2022-10-01T07:17:33.852Z,2.83
2022-10-01T07:20:01.826Z,2.53
2022-10-01T07:22:28.747Z,2.45
2022-10-01T07:24:55.670Z,2.30
2022-10-01T07:27:22.580Z,2.90
2022-10-01T07:29:49.456Z,2.53
2022-10-01T07:32:16.720Z,1.85
2022-10-01T07:34:43.566Z,2.03
2022-10-01T07:37:10.970Z,1.80
2022-10-01T07:39:38.077Z,1.98
2022-10-01T07:42:04.968Z,1.40
2022-10-01T07:44:31.830Z,1.50
2022-10-01T07:46:59.284Z,2.20
2022-10-01T07:49:26.291Z,1.50
2022-10-01T07:51:54.860Z,2.25
2022-10-01T07:54:22.650Z,2.40
2022-10-01T07:56:52.956Z,2.08
2022-10-01T07:59:20.000Z,1.60
2022-10-01T08:01:53.474Z,1.55
2022-10-01T08:04:40.288Z,1.25
2022-10-01T08:07:08.388Z,1.50
2022-10-01T08:09:35.993Z,2.13
2022-10-01T08:12:03.165Z,1.83
2022-10-01T08:14:30.607Z,2.42
2022-10-01T08:16:57.875Z,1.92
2022-10-01T08:19:25.539Z,2.13
2022-10-01T08:21:52.935Z,1.58
2022-10-01T08:24:20.244Z,1.58
2022-10-01T08:26:53.435Z,1.50
2022-10-01T08:29:20.558Z,1.58
2022-10-01T08:31:48.352Z,1.70
2022-10-01T08:34:15.609Z,1.00
2022-10-01T08:36:42.545Z,1.58
2022-10-01T08:39:09.438Z,2.00
2022-10-01T08:42:00.524Z,1.40
2022-10-01T08:44:41.305Z,1.30
2022-10-01T08:47:17.335Z,1.42
2022-10-01T08:49:53.750Z,1.23
2022-10-01T08:52:25.114Z,1.17
2022-10-01T08:55:00.575Z,1.65
2022-10-01T08:57:38.562Z,1.23
2022-10-01T09:00:12.383Z,1.50
2022-10-01T09:02:41.674Z,1.50
2022-10-01T09:05:29.779Z,1.63
2022-10-01T09:08:24.661Z,1.40
2022-10-01T09:13:34.641Z,1.63
2022-10-01T09:16:29.560Z,1.35
2022-10-01T09:19:02.348Z,1.50
2022-10-01T09:21:47.526Z,1.38
2022-10-01T09:24:38.480Z,1.50
2022-10-01T09:27:13.895Z,1.50
2022-10-01T09:29:46.368Z,1.73
2022-10-01T09:32:18.344Z,1.70
2022-10-01T09:34:46.009Z,1.40
2022-10-01T09:37:15.797Z,1.60
2022-10-01T09:39:54.812Z,1.10
2022-10-01T09:42:26.985Z,1.55
2022-10-01T09:44:54.766Z,1.45
2022-10-01T09:47:25.769Z,1.40
2022-10-01T09:49:53.162Z,1.55
2022-10-01T09:52:38.459Z,2.13
2022-10-01T09:55:42.363Z,1.83
2022-10-01T09:58:18.397Z,1.52
2022-10-01T10:00:45.541Z,2.10
2022-10-01T10:03:23.797Z,1.60
2022-10-01T10:05:51.414Z,1.90
2022-10-01T10:08:21.359Z,1.58
2022-10-01T10:10:58.456Z,1.77
2022-10-01T10:13:35.406Z,2.25
2022-10-01T10:16:26.595Z,1.73
2022-10-01T10:19:02.322Z,1.90
2022-10-01T10:21:35.059Z,2.10
2022-10-01T10:24:05.215Z,2.20
2022-10-01T10:26:33.971Z,2.10
2022-10-01T10:29:03.500Z,1.83
2022-10-01T10:31:55.581Z,1.98
2022-10-01T10:34:38.379Z,2.40
2022-10-01T10:37:15.285Z,2.33
2022-10-01T10:39:46.831Z,2.63
2022-10-01T10:42:18.985Z,1.60
2022-10-01T10:44:49.401Z,1.80
2022-10-01T10:47:19.335Z,1.77
2022-10-01T10:49:49.244Z,2.60
2022-10-01T10:52:20.945Z,1.92
2022-10-01T10:54:50.781Z,2.30
2022-10-01T10:57:28.153Z,1.75
2022-10-01T11:00:01.112Z,1.70
2022-10-01T11:02:30.604Z,2.08
2022-10-01T11:05:15.340Z,1.95
2022-10-01T11:07:45.450Z,1.85
2022-10-01T11:10:25.591Z,2.38
2022-10-01T11:13:18.683Z,2.28
2022-10-01T11:16:42.282Z,2.25
2022-10-01T11:19:21.089Z,1.88
2022-10-01T11:21:57.982Z,1.55
2022-10-01T11:24:47.076Z,1.73
2022-10-01T11:27:36.337Z,1.58
2022-10-01T11:30:15.391Z,1.95
2022-10-01T11:33:33.047Z,1.98
2022-10-01T11:36:17.933Z,1.70
2022-10-01T11:39:05.562Z,2.00
2022-10-01T11:41:41.568Z,1.75
2022-10-01T11:44:29.837Z,2.20
2022-10-01T11:47:03.709Z,2.33
2022-10-01T11:49:54.822Z,2.00
2022-10-01T11:52:42.117Z,1.65
2022-10-01T11:55:55.234Z,1.67
2022-10-01T11:58:57.541Z,1.75
2022-10-01T12:01:24.456Z,1.90
2022-10-01T12:03:54.626Z,2.53
2022-10-01T12:06:33.598Z,1.90
2022-10-01T12:09:17.656Z,1.95
2022-10-01T12:12:11.614Z,2.20
2022-10-01T12:14:45.214Z,1.90
2022-10-01T12:17:27.347Z,2.13
2022-10-01T12:19:58.695Z,2.70
2022-10-01T12:22:35.827Z,2.10
2022-10-01T12:25:02.882Z,2.53
2022-10-01T12:27:38.630Z,2.20
2022-10-01T12:30:12.919Z,1.75
2022-10-01T12:35:12.592Z,1.95
2022-10-01T12:38:01.114Z,1.65
2022-10-01T12:40:31.644Z,2.13
2022-10-01T12:43:20.827Z,1.80
2022-10-01T12:46:05.157Z,1.92
2022-10-01T12:49:00.624Z,2.17
2022-10-01T12:51:38.162Z,2.17
2022-10-01T12:54:24.483Z,2.00
2022-10-01T12:57:09.752Z,2.00
2022-10-01T12:59:40.950Z,2.13
2022-10-01T13:02:25.584Z,2.20
2022-10-01T13:05:10.575Z,2.92
2022-10-01T13:10:27.847Z,1.88
2022-10-01T13:12:56.649Z,2.13
2022-10-01T13:15:28.357Z,1.88
2022-10-01T13:18:09.642Z,1.75
2022-10-01T13:21:05.821Z,2.10
2022-10-01T13:23:43.964Z,1.83
2022-10-01T13:26:32.333Z,1.98
2022-10-01T13:29:30.614Z,2.35
2022-10-01T13:32:00.141Z,2.45
2022-10-01T13:34:53.922Z,2.10
2022-10-01T13:37:29.880Z,2.40
2022-10-01T13:39:58.318Z,2.03
2022-10-01T13:42:37.046Z,2.40
2022-10-01T13:45:07.349Z,2.47
2022-10-01T13:47:41.297Z,2.38
2022-10-01T13:50:19.728Z,2.30
2022-10-01T13:52:47.149Z,2.60
2022-10-01T13:55:28.679Z,2.20
2022-10-01T13:58:06.539Z,2.47
2022-10-01T14:00:33.720Z,2.20
2022-10-01T14:03:29.502Z,2.17
2022-10-01T14:06:02.566Z,2.50
2022-10-01T14:08:38.233Z,2.60
2022-10-01T14:11:30.486Z,2.15
2022-10-01T14:14:26.600Z,2.20
2022-10-01T14:16:54.901Z,2.03
2022-10-01T14:19:25.247Z,2.58
2022-10-01T14:22:14.590Z,2.58
2022-10-01T14:24:47.362Z,2.80
2022-10-01T14:27:31.425Z,2.42
2022-10-01T14:30:14.733Z,2.53
2022-10-01T14:33:02.996Z,2.70
2022-10-01T14:35:53.692Z,2.75
2022-10-01T14:38:22.012Z,2.85
2022-10-01T14:40:50.718Z,3.97
2022-10-01T14:43:30.268Z,3.40
2022-10-01T14:45:59.747Z,3.08
2022-10-01T14:48:29.726Z,3.10
2022-10-01T14:51:03.223Z,3.53
2022-10-01T14:53:35.991Z,3.45
2022-10-01T14:56:13.576Z,3.17
2022-10-01T14:58:46.736Z,3.15
2022-10-01T15:01:21.163Z,3.30
2022-10-01T15:03:49.341Z,3.30
2022-10-01T15:06:20.770Z,4.25
2022-10-01T15:08:53.336Z,3.38
2022-10-01T15:11:23.657Z,4.00
2022-10-01T15:13:53.045Z,3.22
2022-10-01T15:16:27.497Z,3.42
2022-10-01T15:19:01.469Z,3.60
2022-10-01T15:21:47.761Z,3.40
2022-10-01T15:24:33.782Z,3.75
2022-10-01T15:27:01.792Z,3.58
2022-10-01T15:29:28.689Z,3.30
2022-10-01T15:31:57.799Z,3.53
2022-10-01T15:34:26.927Z,3.85
2022-10-01T15:36:54.797Z,4.07
2022-10-01T15:39:27.900Z,4.07
2022-10-01T15:41:56.811Z,3.45
2022-10-01T15:44:45.593Z,3.78
2022-10-01T15:47:47.880Z,4.72
2022-10-01T15:50:23.759Z,4.75
2022-10-01T15:53:19.571Z,4.57
2022-10-01T15:55:52.704Z,4.38
2022-10-01T15:58:27.050Z,4.57
2022-10-01T16:01:10.625Z,4.25
2022-10-01T16:03:49.360Z,4.55
2022-10-01T16:06:24.054Z,4.28
2022-10-01T16:09:00.294Z,4.32
2022-10-01T16:11:32.252Z,4.85
2022-10-01T16:14:29.240Z,4.55
2022-10-01T16:17:24.124Z,4.68
2022-10-01T16:19:53.476Z,5.13
2022-10-01T16:22:34.955Z,5.40
2022-10-01T16:25:26.071Z,4.88
2022-10-01T16:28:04.024Z,5.88
2022-10-01T16:30:32.637Z,4.90
2022-10-01T16:33:02.628Z,5.20
2022-10-01T16:35:32.715Z,4.43
2022-10-01T16:37:59.814Z,5.35
2022-10-01T16:40:30.102Z,5.05
2022-10-01T16:42:59.266Z,6.43
2022-10-01T16:45:29.620Z,5.38
2022-10-01T16:47:59.236Z,6.03
2022-10-01T16:50:26.566Z,6.10
2022-10-01T16:52:55.525Z,5.20
2022-10-01T16:55:27.765Z,5.03
2022-10-01T16:57:55.145Z,4.97
2022-10-01T17:00:24.556Z,6.20
2022-10-01T17:02:51.973Z,6.80
2022-10-01T17:05:26.120Z,6.07
2022-10-01T17:07:54.617Z,6.18
2022-10-01T17:10:23.848Z,5.95
2022-10-01T17:12:51.165Z,7.68
2022-10-01T17:15:26.551Z,6.68
2022-10-01T17:17:58.011Z,7.50
2022-10-01T17:20:28.745Z,6.82
2022-10-01T17:22:57.393Z,6.65
2022-10-01T17:25:34.445Z,7.15
2022-10-01T17:28:03.233Z,7.53
2022-10-01T17:30:31.197Z,6.90
2022-10-01T17:33:00.101Z,6.63
2022-10-01T17:35:28.964Z,7.20
2022-10-01T17:37:56.148Z,6.78
2022-10-01T17:40:23.331Z,7.32
2022-10-01T17:42:50.415Z,8.65
2022-10-01T17:45:17.475Z,6.70
2022-10-01T17:47:48.943Z,7.10
2022-10-01T17:50:16.933Z,7.32
2022-10-01T17:52:46.483Z,7.35
2022-10-01T17:55:13.614Z,6.75
2022-10-01T17:57:40.504Z,7.20
2022-10-01T18:00:08.195Z,6.95
2022-10-01T18:02:42.861Z,6.68
2022-10-01T18:05:12.618Z,5.72
2022-10-01T18:07:40.442Z,5.28
2022-10-01T18:10:10.984Z,5.63
2022-10-01T18:12:37.847Z,5.13
2022-10-01T18:15:05.298Z,6.13
2022-10-01T18:17:33.309Z,5.07
2022-10-01T18:20:00.400Z,5.38
2022-10-01T18:22:28.309Z,6.00
2022-10-01T18:24:55.494Z,5.43
2022-10-01T18:27:22.475Z,5.80
2022-10-01T18:29:49.506Z,5.38
2022-10-01T18:32:26.845Z,8.18
2022-10-01T18:34:59.265Z,5.78
2022-10-01T18:37:39.030Z,5.65
2022-10-01T18:40:17.940Z,5.63
2022-10-01T18:43:06.228Z,6.00
2022-10-01T18:45:41.936Z,8.30
2022-10-01T18:48:26.964Z,5.45
2022-10-01T18:51:09.039Z,6.57
2022-10-01T18:54:14.424Z,6.30
2022-10-01T18:56:54.368Z,5.88
2022-10-01T18:59:33.357Z,5.18
2022-10-01T19:02:26.485Z,5.35
2022-10-01T19:05:30.610Z,5.82
2022-10-01T19:08:17.918Z,7.55
2022-10-01T19:10:44.730Z,7.63
2022-10-01T19:13:13.895Z,6.30
2022-10-01T19:16:13.222Z,7.60
2022-10-01T19:18:56.846Z,7.72
2022-10-01T19:21:32.765Z,7.00
2022-10-01T19:24:17.435Z,7.03
2022-10-01T19:26:59.454Z,6.90
2022-10-01T19:29:41.629Z,6.18
2022-10-01T19:32:22.103Z,5.38
2022-10-01T19:34:56.910Z,5.38
2022-10-01T19:37:47.919Z,5.95
2022-10-01T19:40:51.856Z,6.57
2022-10-01T19:43:46.193Z,5.70
2022-10-01T19:46:24.012Z,6.25
2022-10-01T19:48:57.151Z,6.10
2022-10-01T19:51:30.559Z,6.18
2022-10-01T19:54:01.222Z,5.68
2022-10-01T19:56:31.214Z,6.32
2022-10-01T19:59:11.658Z,5.97
2022-10-01T20:01:44.389Z,5.90
2022-10-01T20:04:21.778Z,6.60
2022-10-01T20:06:48.666Z,6.90
2022-10-01T20:09:34.747Z,6.43
2022-10-01T20:12:18.497Z,6.95
2022-10-01T20:15:09.422Z,9.70
2022-10-01T20:17:36.295Z,9.55
2022-10-01T20:20:32.290Z,8.20
2022-10-01T20:23:26.615Z,8.30
2022-10-01T20:26:02.482Z,8.65
2022-10-01T20:28:44.743Z,8.68
2022-10-01T20:31:19.006Z,8.93
2022-10-01T20:34:07.694Z,10.55
2022-10-01T20:36:41.673Z,8.98
2022-10-01T20:39:11.892Z,8.45
2022-10-01T20:41:48.957Z,8.23
2022-10-01T20:44:22.088Z,7.97
2022-10-01T20:46:52.480Z,8.43
2022-10-01T20:49:27.328Z,7.47
2022-10-01T20:51:58.694Z,7.50
2022-10-01T20:54:32.612Z,8.15
2022-10-01T20:56:59.798Z,6.65
2022-10-01T20:59:36.703Z,6.60
2022-10-01T21:02:19.229Z,6.90
2022-10-01T21:05:00.762Z,6.30
2022-10-01T21:07:42.388Z,6.28
2022-10-01T21:10:43.417Z,5.18
2022-10-01T21:13:17.448Z,5.13
2022-10-01T21:15:50.041Z,4.95
2022-10-01T21:19:10.644Z,5.40
2022-10-01T21:21:53.339Z,4.72
2022-10-01T21:24:39.348Z,6.07
2022-10-01T21:27:06.213Z,5.60
2022-10-01T21:29:57.264Z,6.32
2022-10-01T21:32:36.818Z,5.93
2022-10-01T21:35:31.107Z,6.45
2022-10-01T21:38:16.478Z,6.07
2022-10-01T21:43:46.970Z,6.50
2022-10-01T21:46:38.684Z,6.57
2022-10-01T21:49:17.603Z,7.03
2022-10-01T21:51:45.399Z,6.90
2022-10-01T21:54:44.792Z,6.75
2022-10-01T21:57:30.126Z,6.57
2022-10-01T22:00:23.347Z,6.65
2022-10-01T22:03:15.123Z,6.00
2022-10-01T22:06:00.300Z,5.70
2022-10-01T22:08:50.304Z,5.20
2022-10-01T22:11:23.466Z,5.28
2022-10-01T22:13:58.728Z,4.97
2022-10-01T22:16:31.918Z,5.07
2022-10-01T22:19:07.083Z,5.63
2022-10-01T22:21:50.491Z,6.38
2022-10-01T22:24:43.686Z,6.88
2022-10-01T22:27:19.143Z,8.88
2022-10-01T22:29:55.648Z,7.20
2022-10-01T22:32:24.797Z,6.85
2022-10-01T22:35:12.530Z,6.80
2022-10-01T22:37:53.958Z,6.90
2022-10-01T22:40:28.475Z,6.25
2022-10-01T22:43:04.617Z,6.95
2022-10-01T22:46:00.610Z,7.20
2022-10-01T22:49:03.865Z,7.50
2022-10-01T22:51:49.909Z,7.88
2022-10-01T22:54:58.940Z,8.13
2022-10-01T22:57:57.568Z,8.13
2022-10-01T23:00:24.608Z,7.78
2022-10-01T23:03:18.461Z,5.88
2022-10-01T23:06:06.387Z,6.30
2022-10-01T23:08:45.491Z,5.55
2022-10-01T23:11:18.405Z,4.82
2022-10-01T23:14:23.871Z,6.03
2022-10-01T23:17:22.894Z,5.90
2022-10-01T23:20:25.045Z,5.15
2022-10-01T23:22:54.506Z,5.45
2022-10-01T23:25:36.723Z,6.40
2022-10-01T23:28:21.268Z,4.90
2022-10-01T23:31:06.489Z,4.70
2022-10-01T23:33:58.165Z,4.95
2022-10-01T23:36:37.163Z,7.22
2022-10-01T23:39:07.124Z,8.57
2022-10-01T23:41:47.810Z,3.60
2022-10-01T23:44:23.790Z,4.53
2022-10-01T23:46:53.316Z,2.80
2022-10-01T23:49:26.775Z,2.65
2022-10-01T23:52:13.001Z,3.10
2022-10-01T23:54:56.638Z,2.53
2022-10-01T23:57:31.986Z,3.55
